createdAt,value
2022-09-27T00:00:16.757Z,17.27
2022-09-27T00:00:38.996Z,16.35
2022-09-27T00:01:07.867Z,17.13
2022-09-27T00:01:29.990Z,16.65
2022-09-27T00:01:52.043Z,16.70
2022-09-27T00:02:15.237Z,16.08
2022-09-27T00:02:37.182Z,16.08
2022-09-27T00:02:59.557Z,16.75
2022-09-27T00:03:21.601Z,15.80
2022-09-27T00:03:43.476Z,15.32
2022-09-27T00:04:08.625Z,15.23
2022-09-27T00:04:30.519Z,16.27
2022-09-27T00:04:53.442Z,16.10
2022-09-27T00:05:18.335Z,16.08
2022-09-27T00:05:40.726Z,15.95
2022-09-27T00:06:08.643Z,15.48
2022-09-27T00:06:39.901Z,16.83
2022-09-27T00:07:02.839Z,16.35
2022-09-27T00:07:25.219Z,16.25
2022-09-27T00:07:47.205Z,15.63
2022-09-27T00:08:12.583Z,16.00
2022-09-27T00:08:36.230Z,16.10
2022-09-27T00:09:01.692Z,15.60
2022-09-27T00:09:23.866Z,15.98
2022-09-27T00:09:45.669Z,15.27
2022-09-27T00:10:08.935Z,15.20
2022-09-27T00:10:34.641Z,15.10
2022-09-27T00:11:08.093Z,14.63
2022-09-27T00:11:32.392Z,14.48
2022-09-27T00:11:54.295Z,14.82
2022-09-27T00:12:16.326Z,13.98
2022-09-27T00:12:40.854Z,13.93
2022-09-27T00:13:02.987Z,14.82
2022-09-27T00:13:24.868Z,15.23
2022-09-27T00:13:49.881Z,14.75
2022-09-27T00:14:15.117Z,14.95
2022-09-27T00:14:37.056Z,14.90
2022-09-27T00:15:02.349Z,14.25
2022-09-27T00:15:24.333Z,14.40
2022-09-27T00:15:46.333Z,13.65
2022-09-27T00:16:09.719Z,14.57
2022-09-27T00:16:35.183Z,14.30
2022-09-27T00:16:57.176Z,14.93
2022-09-27T00:17:19.264Z,14.23
2022-09-27T00:17:41.397Z,14.18
2022-09-27T00:18:05.584Z,14.18
2022-09-27T00:18:30.308Z,14.77
2022-09-27T00:18:52.484Z,13.43
2022-09-27T00:19:23.363Z,14.85
2022-09-27T00:19:46.490Z,14.57
2022-09-27T00:20:09.609Z,14.18
2022-09-27T00:20:31.775Z,13.73
2022-09-27T00:20:53.777Z,14.10
2022-09-27T00:21:15.782Z,13.60
2022-09-27T00:21:38.881Z,13.82
2022-09-27T00:22:02.249Z,14.60
2022-09-27T00:22:27.404Z,14.10
2022-09-27T00:22:52.741Z,14.48
2022-09-27T00:23:14.741Z,12.50
2022-09-27T00:23:39.445Z,14.32
2022-09-27T00:24:03.281Z,14.25
2022-09-27T00:24:25.177Z,13.68
2022-09-27T00:24:49.426Z,14.20
2022-09-27T00:25:11.331Z,13.30
2022-09-27T00:25:33.221Z,14.30
2022-09-27T00:25:56.994Z,14.07
2022-09-27T00:26:19.018Z,13.82
2022-09-27T00:26:49.539Z,14.57
2022-09-27T00:27:11.477Z,14.18
2022-09-27T00:27:34.301Z,14.18
2022-09-27T00:28:01.437Z,14.85
2022-09-27T00:28:27.037Z,15.20
2022-09-27T00:28:52.251Z,14.13
2022-09-27T00:29:15.650Z,14.18
2022-09-27T00:29:39.815Z,14.05
2022-09-27T00:30:02.350Z,14.07
2022-09-27T00:30:25.264Z,15.43
2022-09-27T00:30:48.276Z,14.90
2022-09-27T00:31:22.864Z,15.60
2022-09-27T00:31:45.146Z,14.45
2022-09-27T00:32:07.170Z,14.18
2022-09-27T00:32:29.221Z,14.55
2022-09-27T00:32:53.038Z,14.38
2022-09-27T00:33:14.954Z,14.85
2022-09-27T00:33:36.927Z,14.30
2022-09-27T00:34:01.882Z,14.18
2022-09-27T00:34:25.931Z,14.60
2022-09-27T00:34:47.976Z,15.13
2022-09-27T00:35:10.531Z,14.25
2022-09-27T00:35:32.591Z,14.52
2022-09-27T00:35:54.954Z,14.50
2022-09-27T00:36:19.828Z,13.93
2022-09-27T00:36:44.078Z,13.27
2022-09-27T00:37:06.558Z,12.05
2022-09-27T00:37:28.503Z,11.77
2022-09-27T00:37:50.341Z,11.93
2022-09-27T00:38:13.036Z,12.07
2022-09-27T00:38:34.953Z,12.32
2022-09-27T00:39:01.048Z,12.93
2022-09-27T00:39:26.173Z,12.70
2022-09-27T00:39:48.102Z,11.93
2022-09-27T00:40:10.478Z,12.20
2022-09-27T00:40:32.713Z,12.57
2022-09-27T00:40:56.889Z,12.85
2022-09-27T00:41:35.255Z,13.45
2022-09-27T00:41:57.322Z,13.70
2022-09-27T00:42:19.418Z,14.02
2022-09-27T00:42:41.305Z,14.65
2022-09-27T00:43:05.705Z,13.77
2022-09-27T00:43:45.329Z,14.13
2022-09-27T00:44:33.845Z,14.52
2022-09-27T00:45:02.374Z,14.52
2022-09-27T00:45:24.607Z,14.45
2022-09-27T00:46:00.489Z,13.63
2022-09-27T00:46:41.563Z,13.77
2022-09-27T00:47:29.201Z,14.10
2022-09-27T00:47:56.936Z,12.95
2022-09-27T00:48:35.055Z,13.73
2022-09-27T00:49:18.033Z,11.90
2022-09-27T00:49:53.885Z,11.82
2022-09-27T00:50:46.871Z,12.60
2022-09-27T00:51:12.714Z,12.60
2022-09-27T00:51:41.065Z,12.52
2022-09-27T00:52:24.856Z,12.80
2022-09-27T00:52:58.476Z,12.80
2022-09-27T00:53:34.350Z,13.25
2022-09-27T00:54:00.459Z,13.50
2022-09-27T00:54:27.098Z,13.10
2022-09-27T00:54:56.025Z,13.57
2022-09-27T00:55:29.400Z,13.45
2022-09-27T00:55:57.986Z,11.68
2022-09-27T00:56:25.769Z,12.02
2022-09-27T00:56:50.124Z,12.20
2022-09-27T00:57:12.293Z,12.10
2022-09-27T00:57:40.299Z,12.02
2022-09-27T00:58:05.255Z,11.80
2022-09-27T00:58:40.090Z,11.70
2022-09-27T00:59:21.807Z,11.80
2022-09-27T00:59:48.500Z,11.57
2022-09-27T01:00:15.126Z,11.65
2022-09-27T01:00:42.602Z,11.38
2022-09-27T01:01:16.360Z,11.35
2022-09-27T01:01:38.898Z,11.30
2022-09-27T01:02:02.025Z,11.45
2022-09-27T01:02:24.026Z,10.63
2022-09-27T01:02:56.933Z,10.35
2022-09-27T01:03:36.500Z,10.10
2022-09-27T01:04:24.037Z,9.98
2022-09-27T01:04:54.248Z,10.55
2022-09-27T01:05:19.788Z,9.88
2022-09-27T01:05:42.452Z,9.63
2022-09-27T01:06:08.413Z,9.50
2022-09-27T01:06:31.046Z,9.77
2022-09-27T01:06:53.105Z,9.40
2022-09-27T01:07:19.253Z,9.65
2022-09-27T01:07:42.209Z,10.02
2022-09-27T01:08:04.165Z,9.10
2022-09-27T01:08:26.209Z,9.30
2022-09-27T01:08:49.292Z,9.52
2022-09-27T01:09:16.054Z,9.13
2022-09-27T01:09:42.428Z,9.00
2022-09-27T01:10:07.415Z,9.07
2022-09-27T01:10:37.476Z,9.13
2022-09-27T01:11:36.556Z,9.75
2022-09-27T01:12:21.247Z,9.23
2022-09-27T01:12:48.405Z,9.25
2022-09-27T01:16:55.179Z,9.30
2022-09-27T01:17:38.198Z,8.60
2022-09-27T01:18:17.949Z,8.57
2022-09-27T01:19:04.891Z,9.00
2022-09-27T01:19:29.424Z,8.48
2022-09-27T01:20:11.566Z,8.50
2022-09-27T01:21:08.740Z,8.82
2022-09-27T01:21:59.453Z,8.38
2022-09-27T01:22:28.454Z,7.95
2022-09-27T01:23:03.953Z,7.85
2022-09-27T01:23:52.120Z,8.40
2022-09-27T01:24:22.983Z,8.20
2022-09-27T01:25:00.437Z,7.93
2022-09-27T01:25:43.357Z,7.60
2022-09-27T01:26:30.018Z,7.80
2022-09-27T01:27:00.899Z,7.60
2022-09-27T01:28:02.869Z,8.18
2022-09-27T01:28:51.502Z,7.80
2022-09-27T01:29:53.430Z,8.63
2022-09-27T01:30:25.800Z,7.93
2022-09-27T01:31:12.407Z,7.78
2022-09-27T01:31:55.195Z,8.60
2022-09-27T01:32:26.789Z,8.48
2022-09-27T01:33:21.013Z,9.23
2022-09-27T01:33:49.498Z,8.10
2022-09-27T01:34:21.831Z,7.68
2022-09-27T01:35:02.856Z,8.57
2022-09-27T01:35:48.160Z,7.82
2022-09-27T01:36:10.095Z,8.75
2022-09-27T01:36:51.153Z,8.20
2022-09-27T01:37:32.491Z,8.50
2022-09-27T01:38:16.028Z,8.50
2022-09-27T01:38:57.178Z,8.40
2022-09-27T01:39:19.069Z,8.82
2022-09-27T01:39:50.124Z,8.75
2022-09-27T01:40:33.171Z,8.57
2022-09-27T01:41:02.578Z,8.57
2022-09-27T01:41:43.287Z,9.07
2022-09-27T01:42:22.040Z,8.50
2022-09-27T01:43:15.319Z,8.80
2022-09-27T01:43:44.980Z,9.27
2022-09-27T01:44:31.204Z,9.38
2022-09-27T01:45:25.246Z,9.07
2022-09-27T01:46:11.173Z,8.90
2022-09-27T01:46:45.175Z,8.32
2022-09-27T01:47:18.124Z,9.07
2022-09-27T01:47:45.728Z,8.98
2022-09-27T01:48:35.910Z,9.55
2022-09-27T01:49:06.765Z,8.60
2022-09-27T01:49:39.654Z,9.50
2022-09-27T01:50:18.108Z,9.32
2022-09-27T01:50:46.586Z,9.50
2022-09-27T01:51:14.623Z,10.00
2022-09-27T01:51:51.928Z,9.68
2022-09-27T01:52:17.376Z,9.50
2022-09-27T01:53:11.630Z,9.32
2022-09-27T01:53:44.249Z,8.95
2022-09-27T01:54:08.987Z,9.15
2022-09-27T01:54:54.321Z,9.05
2022-09-27T01:55:22.397Z,9.20
2022-09-27T01:55:49.566Z,9.45
2022-09-27T01:56:23.509Z,9.48
2022-09-27T01:56:52.840Z,9.43
2022-09-27T01:57:21.231Z,9.02
2022-09-27T01:57:49.325Z,9.32
2022-09-27T01:58:36.045Z,9.45
2022-09-27T01:59:35.873Z,9.52
2022-09-27T02:00:02.492Z,9.43
2022-09-27T02:00:25.418Z,9.63
2022-09-27T02:00:49.914Z,8.63
2022-09-27T02:01:17.202Z,8.80
2022-09-27T02:01:42.728Z,9.45
2022-09-27T02:02:12.197Z,9.55
2022-09-27T02:02:49.318Z,9.25
2022-09-27T02:03:16.472Z,9.90
2022-09-27T02:03:44.197Z,9.32
2022-09-27T02:04:12.500Z,9.10
2022-09-27T02:04:38.342Z,8.80
2022-09-27T02:05:03.068Z,9.00
2022-09-27T02:05:34.237Z,9.35
2022-09-27T02:06:01.693Z,9.35
2022-09-27T02:06:31.280Z,8.65
2022-09-27T02:06:59.996Z,9.18
2022-09-27T02:07:51.056Z,9.23
2022-09-27T02:08:32.952Z,9.50
2022-09-27T02:09:05.559Z,9.60
2022-09-27T02:09:30.781Z,9.55
2022-09-27T02:10:09.997Z,9.57
2022-09-27T02:10:37.768Z,8.75
2022-09-27T02:11:01.839Z,8.63
2022-09-27T02:11:23.686Z,8.57
2022-09-27T02:11:56.089Z,8.80
2022-09-27T02:12:28.613Z,9.00
2022-09-27T02:13:08.353Z,9.23
2022-09-27T02:13:48.551Z,8.98
2022-09-27T02:14:31.310Z,9.02
2022-09-27T02:14:54.640Z,8.77
2022-09-27T02:15:16.766Z,9.40
2022-09-27T02:16:05.052Z,9.13
2022-09-27T02:16:54.516Z,8.55
2022-09-27T02:17:43.432Z,8.25
2022-09-27T02:18:19.530Z,8.85
2022-09-27T02:18:59.469Z,8.63
2022-09-27T02:19:43.804Z,8.55
2022-09-27T02:20:14.141Z,8.02
2022-09-27T02:20:40.217Z,8.32
2022-09-27T02:21:06.975Z,7.95
2022-09-27T02:21:43.126Z,8.63
2022-09-27T02:22:07.546Z,8.50
2022-09-27T02:22:39.032Z,8.30
2022-09-27T02:23:16.929Z,8.60
2022-09-27T02:24:01.608Z,8.60
2022-09-27T02:24:34.973Z,8.60
2022-09-27T02:25:11.040Z,8.55
2022-09-27T02:25:46.130Z,8.60
2022-09-27T02:26:27.588Z,8.63
2022-09-27T02:26:58.086Z,8.75
2022-09-27T02:27:50.964Z,8.88
2022-09-27T02:28:17.508Z,8.68
2022-09-27T02:28:58.355Z,8.90
2022-09-27T02:29:26.656Z,8.60
2022-09-27T02:30:06.406Z,8.93
2022-09-27T02:30:28.435Z,9.00
2022-09-27T02:30:50.907Z,9.18
2022-09-27T02:31:12.860Z,9.10
2022-09-27T02:31:37.997Z,9.13
2022-09-27T02:32:02.360Z,8.90
2022-09-27T02:32:24.242Z,9.15
2022-09-27T02:32:46.701Z,9.20
2022-09-27T02:33:09.456Z,8.77
2022-09-27T02:33:52.781Z,9.18
2022-09-27T02:34:24.145Z,8.98
2022-09-27T02:34:47.769Z,8.85
2022-09-27T02:35:18.842Z,9.35
2022-09-27T02:35:43.784Z,8.93
2022-09-27T02:36:11.646Z,9.38
2022-09-27T02:36:38.974Z,9.23
2022-09-27T02:37:03.580Z,9.23
2022-09-27T02:37:25.496Z,9.13
2022-09-27T02:37:48.008Z,9.43
2022-09-27T02:38:10.846Z,9.32
2022-09-27T02:38:33.181Z,9.40
2022-09-27T02:38:55.224Z,9.40
2022-09-27T02:39:18.470Z,9.18
2022-09-27T02:39:43.207Z,9.95
2022-09-27T02:40:06.017Z,9.48
2022-09-27T02:40:42.454Z,9.05
2022-09-27T02:41:04.455Z,9.50
2022-09-27T02:41:26.299Z,9.43
2022-09-27T02:41:48.249Z,9.63
2022-09-27T02:42:13.583Z,8.90
2022-09-27T02:42:38.485Z,9.20
2022-09-27T02:43:02.570Z,9.30
2022-09-27T02:43:29.117Z,9.20
2022-09-27T02:43:56.273Z,9.05
2022-09-27T02:44:23.391Z,8.63
2022-09-27T02:44:54.310Z,8.35
2022-09-27T02:45:18.457Z,8.43
2022-09-27T02:45:54.850Z,8.25
2022-09-27T02:46:47.750Z,8.32
2022-09-27T02:47:32.441Z,8.52
2022-09-27T02:48:09.619Z,8.35
2022-09-27T02:48:48.270Z,8.63
2022-09-27T02:49:43.457Z,8.52
2022-09-27T02:50:19.641Z,8.25
2022-09-27T02:51:07.521Z,7.90
2022-09-27T02:51:52.122Z,7.82
2022-09-27T02:52:36.124Z,8.00
2022-09-27T02:53:35.701Z,8.18
2022-09-27T02:54:19.193Z,7.90
2022-09-27T02:55:21.728Z,7.72
2022-09-27T02:56:12.161Z,8.00
2022-09-27T02:57:03.984Z,7.63
2022-09-27T02:58:04.504Z,7.70
2022-09-27T02:58:52.546Z,7.90
2022-09-27T02:59:39.010Z,7.70
2022-09-27T03:00:12.420Z,7.85
2022-09-27T03:00:48.093Z,7.68
2022-09-27T03:01:37.718Z,7.88
2022-09-27T03:02:32.692Z,7.82
2022-09-27T03:03:36.684Z,7.40
2022-09-27T03:04:24.703Z,7.22
2022-09-27T03:04:56.058Z,7.97
2022-09-27T03:05:25.621Z,7.63
2022-09-27T03:05:59.047Z,7.30
2022-09-27T03:06:24.636Z,7.22
2022-09-27T03:06:47.982Z,7.13
2022-09-27T03:07:14.110Z,7.05
2022-09-27T03:07:38.577Z,7.43
2022-09-27T03:08:01.004Z,7.75
2022-09-27T03:08:27.942Z,7.30
2022-09-27T03:08:50.638Z,6.88
2022-09-27T03:09:25.527Z,7.65
2022-09-27T03:09:52.214Z,6.57
2022-09-27T03:10:19.867Z,6.72
2022-09-27T03:10:42.232Z,7.32
2022-09-27T03:11:04.486Z,7.47
2022-09-27T03:11:29.442Z,7.80
2022-09-27T03:11:51.892Z,7.03
2022-09-27T03:12:14.338Z,7.10
2022-09-27T03:12:37.759Z,7.43
2022-09-27T03:12:59.972Z,6.75
2022-09-27T03:13:21.818Z,6.90
2022-09-27T03:14:07.287Z,6.95
2022-09-27T03:14:29.263Z,7.00
2022-09-27T03:14:51.908Z,6.72
2022-09-27T03:15:16.827Z,6.72
2022-09-27T03:15:38.680Z,6.97
2022-09-27T03:16:01.891Z,6.97
2022-09-27T03:16:24.077Z,6.72
2022-09-27T03:16:47.836Z,6.93
2022-09-27T03:17:09.894Z,6.45
2022-09-27T03:17:33.256Z,6.35
2022-09-27T03:17:55.154Z,6.53
2022-09-27T03:18:17.138Z,6.35
2022-09-27T03:18:39.140Z,6.13
2022-09-27T03:19:02.797Z,6.40
2022-09-27T03:19:28.252Z,6.65
2022-09-27T03:19:50.430Z,6.57
2022-09-27T03:20:12.434Z,6.80
2022-09-27T03:20:35.126Z,6.80
2022-09-27T03:20:57.243Z,7.22
2022-09-27T03:21:19.218Z,7.35
2022-09-27T03:21:43.296Z,7.05
2022-09-27T03:22:05.363Z,6.65
2022-09-27T03:22:27.255Z,6.57
2022-09-27T03:22:50.100Z,6.90
2022-09-27T03:23:12.823Z,7.00
2022-09-27T03:23:35.063Z,7.55
2022-09-27T03:23:57.147Z,7.10
2022-09-27T03:24:21.144Z,7.40
2022-09-27T03:24:46.722Z,6.63
2022-09-27T03:25:10.076Z,6.50
2022-09-27T03:25:34.777Z,6.40
2022-09-27T03:25:58.185Z,6.90
2022-09-27T03:26:21.086Z,7.13
2022-09-27T03:26:43.042Z,6.88
2022-09-27T03:27:06.136Z,6.38
2022-09-27T03:27:28.090Z,6.68
2022-09-27T03:27:49.881Z,6.25
2022-09-27T03:28:13.931Z,6.20
2022-09-27T03:28:36.180Z,5.95
2022-09-27T03:28:58.058Z,6.38
2022-09-27T03:29:24.498Z,6.05
2022-09-27T03:29:46.230Z,6.43
2022-09-27T03:30:08.697Z,6.38
2022-09-27T03:30:30.871Z,6.72
2022-09-27T03:30:52.978Z,6.45
2022-09-27T03:31:15.024Z,6.43
2022-09-27T03:31:37.261Z,6.50
2022-09-27T03:31:59.143Z,6.40
2022-09-27T03:32:21.109Z,6.45
2022-09-27T03:32:44.205Z,6.40
2022-09-27T03:33:06.118Z,6.38
2022-09-27T03:33:27.922Z,6.35
2022-09-27T03:33:49.785Z,5.88
2022-09-27T03:34:12.988Z,5.80
2022-09-27T03:34:34.811Z,5.93
2022-09-27T03:34:57.384Z,5.97
2022-09-27T03:35:19.410Z,6.32
2022-09-27T03:35:43.147Z,6.47
2022-09-27T03:36:05.167Z,6.85
2022-09-27T03:36:27.382Z,6.40
2022-09-27T03:36:49.522Z,6.20
2022-09-27T03:37:13.522Z,6.45
2022-09-27T03:37:35.527Z,6.53
2022-09-27T03:37:57.321Z,6.70
2022-09-27T03:38:19.157Z,6.80
2022-09-27T03:38:44.066Z,6.63
2022-09-27T03:39:08.303Z,6.03
2022-09-27T03:39:30.268Z,6.10
2022-09-27T03:39:52.127Z,6.50
2022-09-27T03:40:16.178Z,6.35
2022-09-27T03:40:38.503Z,6.35
2022-09-27T03:41:00.500Z,6.47
2022-09-27T03:41:22.597Z,5.97
2022-09-27T03:41:44.496Z,5.90
2022-09-27T03:42:06.794Z,6.45
2022-09-27T03:42:28.854Z,6.63
2022-09-27T03:42:51.149Z,7.10
2022-09-27T03:43:15.171Z,7.10
2022-09-27T03:43:37.071Z,7.30
2022-09-27T03:44:01.670Z,7.50
2022-09-27T03:44:23.883Z,6.70
2022-09-27T03:44:47.407Z,7.00
2022-09-27T03:45:09.800Z,7.43
2022-09-27T03:45:31.990Z,7.07
2022-09-27T03:45:56.295Z,7.20
2022-09-27T03:46:18.364Z,7.60
2022-09-27T03:46:40.284Z,7.78
2022-09-27T03:47:02.538Z,6.90
2022-09-27T03:47:24.527Z,7.43
2022-09-27T03:47:48.193Z,7.45
2022-09-27T03:48:10.171Z,7.40
2022-09-27T03:48:32.009Z,7.30
2022-09-27T03:48:56.732Z,7.55
2022-09-27T03:49:19.154Z,7.30
2022-09-27T03:49:41.127Z,6.78
2022-09-27T03:50:02.963Z,7.10
2022-09-27T03:50:27.109Z,6.93
2022-09-27T03:50:51.319Z,7.10
2022-09-27T03:51:13.141Z,6.85
2022-09-27T03:51:35.026Z,6.68
2022-09-27T03:51:56.892Z,7.15
2022-09-27T03:52:22.233Z,7.13
2022-09-27T03:52:47.669Z,7.28
2022-09-27T03:53:09.601Z,6.80
2022-09-27T03:53:35.770Z,6.65
2022-09-27T03:53:57.644Z,7.07
2022-09-27T03:54:20.721Z,7.38
2022-09-27T03:54:43.656Z,7.03
2022-09-27T03:55:06.320Z,7.28
2022-09-27T03:55:28.112Z,7.18
2022-09-27T03:55:50.505Z,6.97
2022-09-27T03:56:12.478Z,7.55
2022-09-27T03:56:36.643Z,7.45
2022-09-27T03:56:59.058Z,7.63
2022-09-27T03:57:20.988Z,7.53
2022-09-27T03:57:47.006Z,7.75
2022-09-27T03:58:08.899Z,8.18
2022-09-27T03:58:32.671Z,8.25
2022-09-27T03:58:54.649Z,7.93
2022-09-27T03:59:17.036Z,8.00
2022-09-27T03:59:38.937Z,8.48
2022-09-27T04:00:03.231Z,7.70
2022-09-27T04:00:25.637Z,7.88
2022-09-27T04:00:47.883Z,7.80
2022-09-27T04:01:10.312Z,8.13
2022-09-27T04:01:37.698Z,7.97
2022-09-27T04:01:59.688Z,8.98
2022-09-27T04:02:22.593Z,8.20
2022-09-27T04:02:45.019Z,8.10
2022-09-27T04:03:10.134Z,8.07
2022-09-27T04:03:32.462Z,8.52
2022-09-27T04:03:58.908Z,9.23
2022-09-27T04:04:25.147Z,9.00
2022-09-27T04:04:47.123Z,9.32
2022-09-27T04:05:12.765Z,8.95
2022-09-27T04:05:34.670Z,8.73
2022-09-27T04:05:56.686Z,8.82
2022-09-27T04:06:19.314Z,9.05
2022-09-27T04:06:43.413Z,8.73
2022-09-27T04:07:05.647Z,9.05
2022-09-27T04:07:27.504Z,8.55
2022-09-27T04:07:49.786Z,8.27
2022-09-27T04:08:12.091Z,8.50
2022-09-27T04:08:36.559Z,8.63
2022-09-27T04:08:58.363Z,8.50
2022-09-27T04:09:20.294Z,8.70
2022-09-27T04:09:47.129Z,9.13
2022-09-27T04:10:11.626Z,9.32
2022-09-27T04:10:33.883Z,9.30
2022-09-27T04:10:56.166Z,9.45
2022-09-27T04:11:18.144Z,9.43
2022-09-27T04:11:40.007Z,9.90
2022-09-27T04:12:04.516Z,9.57
2022-09-27T04:12:26.645Z,9.70
2022-09-27T04:12:48.983Z,10.05
2022-09-27T04:13:10.974Z,9.68
2022-09-27T04:13:35.774Z,9.55
2022-09-27T04:13:57.878Z,10.27
2022-09-27T04:14:20.023Z,10.23
2022-09-27T04:14:42.145Z,10.35
2022-09-27T04:15:04.261Z,10.60
2022-09-27T04:15:26.236Z,9.85
2022-09-27T04:15:52.020Z,9.88
2022-09-27T04:16:16.285Z,10.40
2022-09-27T04:16:39.151Z,10.07
2022-09-27T04:17:01.010Z,9.93
2022-09-27T04:17:23.051Z,9.57
2022-09-27T04:17:45.028Z,9.68
2022-09-27T04:18:07.346Z,10.60
2022-09-27T04:18:29.841Z,10.40
2022-09-27T04:18:52.183Z,9.93
2022-09-27T04:19:14.089Z,10.35
2022-09-27T04:19:37.230Z,10.43
2022-09-27T04:19:59.563Z,9.63
2022-09-27T04:20:21.675Z,10.10
2022-09-27T04:20:43.606Z,10.13
2022-09-27T04:21:05.904Z,9.75
2022-09-27T04:21:30.997Z,10.40
2022-09-27T04:21:54.949Z,11.05
2022-09-27T04:22:16.849Z,10.68
2022-09-27T04:22:44.080Z,10.75
2022-09-27T04:23:06.545Z,10.10
2022-09-27T04:23:30.130Z,10.07
2022-09-27T04:23:52.237Z,10.68
2022-09-27T04:24:14.171Z,10.70
2022-09-27T04:24:36.130Z,11.02
2022-09-27T04:24:59.374Z,11.02
2022-09-27T04:25:21.468Z,11.40
2022-09-27T04:25:43.550Z,11.20
2022-09-27T04:26:06.368Z,11.07
2022-09-27T04:26:28.266Z,10.55
2022-09-27T04:26:50.261Z,10.98
2022-09-27T04:27:12.970Z,11.43
2022-09-27T04:27:34.888Z,11.02
2022-09-27T04:27:56.723Z,10.98
2022-09-27T04:28:19.734Z,11.45
2022-09-27T04:28:41.720Z,11.10
2022-09-27T04:29:04.064Z,11.38
2022-09-27T04:29:25.919Z,10.60
2022-09-27T04:29:47.847Z,10.63
2022-09-27T04:30:10.418Z,10.60
2022-09-27T04:30:32.412Z,11.50
2022-09-27T04:30:54.519Z,11.65
2022-09-27T04:33:18.488Z,11.55
2022-09-27T04:33:50.370Z,11.15
2022-09-27T04:34:12.505Z,11.50
2022-09-27T04:36:07.611Z,12.02
2022-09-27T04:36:30.400Z,11.52
2022-09-27T04:36:52.632Z,11.82
2022-09-27T04:37:14.737Z,11.43
2022-09-27T04:37:45.295Z,12.07
2022-09-27T04:38:07.538Z,11.73
2022-09-27T04:38:31.194Z,11.50
2022-09-27T04:38:57.978Z,11.65
2022-09-27T04:39:20.133Z,11.57
2022-09-27T04:39:42.557Z,12.00
2022-09-27T04:40:05.540Z,12.15
2022-09-27T04:40:28.222Z,11.98
2022-09-27T04:40:52.430Z,11.23
2022-09-27T04:41:15.563Z,11.65
2022-09-27T04:41:37.931Z,11.43
2022-09-27T04:42:00.314Z,11.05
2022-09-27T04:45:23.793Z,11.68
2022-09-27T04:51:00.764Z,12.32
2022-09-27T04:51:23.682Z,11.30
2022-09-27T04:51:45.566Z,11.27
2022-09-27T04:52:07.394Z,11.30
2022-09-27T04:52:32.391Z,11.85
2022-09-27T04:52:54.753Z,11.60
2022-09-27T04:53:16.577Z,11.88
2022-09-27T04:53:41.113Z,11.40
2022-09-27T04:54:04.980Z,11.40
2022-09-27T04:54:26.962Z,11.18
2022-09-27T04:54:48.901Z,11.43
2022-09-27T04:55:11.286Z,11.32
2022-09-27T04:55:33.367Z,11.07
2022-09-27T04:55:55.729Z,11.20
2022-09-27T04:56:18.567Z,11.15
2022-09-27T04:56:43.104Z,10.75
2022-09-27T04:57:08.098Z,11.57
2022-09-27T04:57:29.935Z,11.35
2022-09-27T04:57:51.847Z,10.88
2022-09-27T04:58:16.095Z,11.32
2022-09-27T04:58:38.145Z,11.18
2022-09-27T04:59:01.117Z,11.45
2022-09-27T04:59:27.324Z,11.13
2022-09-27T04:59:51.651Z,11.32
2022-09-27T05:00:14.352Z,11.23
2022-09-27T05:00:37.630Z,10.90
2022-09-27T05:01:02.957Z,10.57
2022-09-27T05:01:25.011Z,10.50
2022-09-27T05:01:47.156Z,10.98
2022-09-27T05:02:09.437Z,11.32
2022-09-27T05:02:36.946Z,10.90
2022-09-27T05:02:59.057Z,11.15
2022-09-27T05:03:28.569Z,12.00
2022-09-27T05:03:50.383Z,11.20
2022-09-27T05:04:12.209Z,11.32
2022-09-27T05:04:34.136Z,11.02
2022-09-27T05:04:59.845Z,11.02
2022-09-27T05:05:22.130Z,11.75
2022-09-27T05:05:46.228Z,10.73
2022-09-27T05:06:10.931Z,10.60
2022-09-27T05:06:32.874Z,10.05
2022-09-27T05:06:57.223Z,10.57
2022-09-27T05:07:20.155Z,11.27
2022-09-27T05:07:42.321Z,11.13
2022-09-27T05:08:05.620Z,10.77
2022-09-27T05:08:28.051Z,10.85
2022-09-27T05:08:50.109Z,10.70
2022-09-27T05:09:13.466Z,10.40
2022-09-27T05:09:35.388Z,10.23
2022-09-27T05:09:57.165Z,10.40
2022-09-27T05:10:20.153Z,10.27
2022-09-27T05:10:45.490Z,10.75
2022-09-27T05:11:09.717Z,11.13
2022-09-27T05:11:31.758Z,11.32
2022-09-27T05:11:56.768Z,11.13
2022-09-27T05:12:18.779Z,10.32
2022-09-27T05:12:41.051Z,10.90
2022-09-27T05:13:03.090Z,10.82
2022-09-27T05:13:25.123Z,10.77
2022-09-27T05:13:48.433Z,10.90
2022-09-27T05:14:10.459Z,11.07
2022-09-27T05:14:35.085Z,11.20
2022-09-27T05:14:56.953Z,10.77
2022-09-27T05:15:24.454Z,10.82
2022-09-27T05:15:46.386Z,10.93
2022-09-27T05:16:11.460Z,11.35
2022-09-27T05:16:34.483Z,11.52
2022-09-27T05:16:56.541Z,11.90
2022-09-27T05:17:22.390Z,11.63
2022-09-27T05:17:46.922Z,11.40
2022-09-27T05:18:11.292Z,10.48
2022-09-27T05:18:34.233Z,10.80
2022-09-27T05:18:57.900Z,10.35
2022-09-27T05:19:20.012Z,10.90
2022-09-27T05:19:43.311Z,11.70
2022-09-27T05:20:06.951Z,11.63
2022-09-27T05:20:29.135Z,11.45
2022-09-27T05:20:51.078Z,12.05
2022-09-27T05:21:14.963Z,11.75
2022-09-27T05:21:36.801Z,11.70
2022-09-27T05:22:01.006Z,11.38
2022-09-27T05:22:22.785Z,11.15
2022-09-27T05:22:44.573Z,11.30
2022-09-27T05:23:08.976Z,11.07
2022-09-27T05:23:31.133Z,11.35
2022-09-27T05:23:54.164Z,11.30
2022-09-27T05:24:16.022Z,11.40
2022-09-27T05:24:39.471Z,11.82
2022-09-27T05:25:01.504Z,12.13
2022-09-27T05:25:23.389Z,11.85
2022-09-27T05:25:46.062Z,11.73
2022-09-27T05:26:08.117Z,11.43
2022-09-27T05:26:29.985Z,11.85
2022-09-27T05:26:54.250Z,12.15
2022-09-27T05:27:22.355Z,11.93
2022-09-27T05:27:44.636Z,11.25
2022-09-27T05:28:09.665Z,10.85
2022-09-27T05:28:35.599Z,11.30
2022-09-27T05:28:57.578Z,11.70
2022-09-27T05:29:19.666Z,12.32
2022-09-27T05:29:42.361Z,11.77
2022-09-27T05:30:06.064Z,11.80
2022-09-27T05:30:29.077Z,11.48
2022-09-27T05:30:51.086Z,11.80
2022-09-27T05:31:14.749Z,11.82
2022-09-27T05:31:36.813Z,12.18
2022-09-27T05:31:58.811Z,11.82
2022-09-27T05:32:21.701Z,11.40
2022-09-27T05:32:45.582Z,11.60
2022-09-27T05:33:07.627Z,11.95
2022-09-27T05:33:34.473Z,11.82
2022-09-27T05:34:27.121Z,11.18
2022-09-27T05:34:54.799Z,11.63
2022-09-27T05:35:20.795Z,11.38
2022-09-27T05:35:47.880Z,11.10
2022-09-27T05:36:12.147Z,11.48
2022-09-27T05:36:44.176Z,11.93
2022-09-27T05:37:06.532Z,11.45
2022-09-27T05:37:34.244Z,11.40
2022-09-27T05:38:00.365Z,11.70
2022-09-27T05:38:22.907Z,11.02
2022-09-27T05:38:44.755Z,10.85
2022-09-27T05:39:07.318Z,11.50
2022-09-27T05:39:32.242Z,11.82
2022-09-27T05:39:56.379Z,11.45
2022-09-27T05:40:39.571Z,10.90
2022-09-27T05:41:01.703Z,11.10
2022-09-27T05:41:24.312Z,10.75
2022-09-27T05:42:15.410Z,11.23
2022-09-27T05:42:41.085Z,11.30
2022-09-27T05:43:03.367Z,10.82
2022-09-27T05:43:25.482Z,11.02
2022-09-27T05:43:47.725Z,11.38
2022-09-27T05:44:13.297Z,12.05
2022-09-27T05:44:35.598Z,11.68
2022-09-27T05:45:00.244Z,11.02
2022-09-27T05:45:24.132Z,10.98
2022-09-27T05:45:46.242Z,11.18
2022-09-27T05:46:08.368Z,10.63
2022-09-27T05:46:34.109Z,11.20
2022-09-27T05:46:56.241Z,11.20
2022-09-27T05:47:18.343Z,11.00
2022-09-27T05:47:56.722Z,10.75
2022-09-27T05:48:19.038Z,10.48
2022-09-27T05:48:44.089Z,10.20
2022-09-27T05:49:06.698Z,10.82
2022-09-27T05:49:28.886Z,10.35
2022-09-27T05:49:52.244Z,9.80
2022-09-27T05:50:14.149Z,10.38
2022-09-27T05:50:36.224Z,10.43
2022-09-27T05:50:58.467Z,10.10
2022-09-27T05:51:21.424Z,10.07
2022-09-27T05:51:43.535Z,9.40
2022-09-27T05:52:05.353Z,8.70
2022-09-27T05:52:28.638Z,9.40
2022-09-27T05:52:50.820Z,9.48
2022-09-27T05:53:13.517Z,9.07
2022-09-27T05:53:36.571Z,9.00
2022-09-27T05:53:58.616Z,9.50
2022-09-27T05:54:23.142Z,9.43
2022-09-27T05:54:45.608Z,9.50
2022-09-27T05:55:07.930Z,9.77
2022-09-27T05:55:30.198Z,9.18
2022-09-27T05:55:51.971Z,9.32
2022-09-27T05:56:13.826Z,9.57
2022-09-27T05:56:35.664Z,9.00
2022-09-27T05:57:08.128Z,9.48
2022-09-27T05:57:30.035Z,9.00
2022-09-27T05:58:11.004Z,8.70
2022-09-27T05:58:34.929Z,8.68
2022-09-27T05:59:00.776Z,7.97
2022-09-27T05:59:33.235Z,8.00
2022-09-27T05:59:55.108Z,7.63
2022-09-27T06:00:17.934Z,8.00
2022-09-27T06:00:39.723Z,7.63
2022-09-27T06:01:01.579Z,7.32
2022-09-27T06:01:28.236Z,7.30
2022-09-27T06:01:52.985Z,7.18
2022-09-27T06:02:14.850Z,7.53
2022-09-27T06:02:40.098Z,7.50
2022-09-27T06:03:04.850Z,7.30
2022-09-27T06:03:26.708Z,7.30
2022-09-27T06:03:48.498Z,7.68
2022-09-27T06:04:10.938Z,7.63
2022-09-27T06:04:32.810Z,6.60
2022-09-27T06:04:55.106Z,6.60
2022-09-27T06:05:16.927Z,6.63
2022-09-27T06:05:40.561Z,6.60
2022-09-27T06:06:06.943Z,7.07
2022-09-27T06:06:28.733Z,7.03
2022-09-27T06:06:50.655Z,6.68
2022-09-27T06:07:15.298Z,6.47
2022-09-27T06:07:40.185Z,6.07
2022-09-27T06:08:15.737Z,6.20
2022-09-27T06:08:38.903Z,6.20